Time;durP1;ratioP1;P1;durP2;ratioP2;P2;SDS_P1;SDS_P2;PMS_P1;PMS_P2;Temp;Humidity;BMP_temperature;BMP_pressure;BME280_temperature;BME280_humidity;BME280_pressure;Samples;Min_cycle;Max_cycle;Signal;HPM_P1;HPM_P2
2023/12/12 00:02:11;;;;;;;4.7;2.5;;;;;;;5.46;87.21;;;;;
2023/12/12 00:13:11;;;;;;;3.2;1.7;;;;;;;5.45;86.81;;;;;
2023/12/12 00:23:11;;;;;;;3.2;1.7;;;;;;;5.51;86.36;;;;;
2023/12/12 00:34:11;;;;;;;3.2;1.7;;;;;;;5.43;85.91;;;;;
2023/12/12 00:44:11;;;;;;;3.6;1.3;;;;;;;5.47;85.71;;;;;
2023/12/12 00:55:11;;;;;;;3.6;1.3;;;;;;;5.44;85.95;;;;;
2023/12/12 01:05:11;;;;;;;3.6;1.3;;;;;;;5.4;86.24;;;;;
2023/12/12 01:15:11;;;;;;;3.8;1.8;;;;;;;5.34;86.67;;;;;
2023/12/12 01:26:11;;;;;;;3.8;1.8;;;;;;;5.43;86.64;;;;;
2023/12/12 01:36:11;;;;;;;3.8;1.8;;;;;;;5.51;86.81;;;;;
2023/12/12 01:47:11;;;;;;;4.6;2.2;;;;;;;5.6;86.43;;;;;
2023/12/12 01:57:11;;;;;;;4.6;2.2;;;;;;;5.63;85.97;;;;;
2023/12/12 02:08:11;;;;;;;5;1.8;;;;;;;5.69;85.5;;;;;
2023/12/12 02:18:11;;;;;;;5;1.8;;;;;;;5.61;85.5;;;;;
2023/12/12 02:28:11;;;;;;;5;1.8;;;;;;;5.71;84.99;;;;;
2023/12/12 02:38:13;;;;;;;5.3;2.3;;;;;;;5.81;84.01;;;;;
2023/12/12 02:48:11;;;;;;;5.3;2.3;;;;;;;5.96;83.15;;;;;
2023/12/12 02:59:11;;;;;;;5.3;2.3;;;;;;;6.03;82.61;;;;;
2023/12/12 03:10:11;;;;;;;4;2;;;;;;;6.05;82.34;;;;;
2023/12/12 03:21:11;;;;;;;4;2;;;;;;;6.11;82.11;;;;;
2023/12/12 03:32:11;;;;;;;4;2;;;;;;;6.05;82.53;;;;;
2023/12/12 03:43:11;;;;;;;5.2;2.3;;;;;;;6.13;82.77;;;;;
2023/12/12 03:53:11;;;;;;;5.2;2.3;;;;;;;6.25;81.73;;;;;
2023/12/12 04:04:11;;;;;;;5.2;2.3;;;;;;;6.28;81.39;;;;;
2023/12/12 04:15:11;;;;;;;6.4;2.4;;;;;;;6.36;80.87;;;;;
2023/12/12 04:25:11;;;;;;;6.4;2.4;;;;;;;6.43;81.52;;;;;
2023/12/12 04:36:12;;;;;;;7;2.1;;;;;;;6.47;80.84;;;;;
2023/12/12 04:47:13;;;;;;;7;2.1;;;;;;;6.41;80.41;;;;;
2023/12/12 04:58:11;;;;;;;7;2.1;;;;;;;6.42;79.74;;;;;
2023/12/12 05:08:11;;;;;;;4;1.9;;;;;;;6.38;79.73;;;;;
2023/12/12 05:18:11;;;;;;;4;1.9;;;;;;;6.3;79.93;;;;;
2023/12/12 05:29:11;;;;;;;4;1.9;;;;;;;6.33;79.92;;;;;
2023/12/12 05:40:14;;;;;;;4.5;2.2;;;;;;;6.31;80.06;;;;;
2023/12/12 05:50:11;;;;;;;4.5;2.2;;;;;;;6.35;80.21;;;;;
2023/12/12 06:01:11;;;;;;;4.5;2.2;;;;;;;6.29;82.06;;;;;
2023/12/12 06:11:11;;;;;;;3.9;2.1;;;;;;;6.21;82.95;;;;;
2023/12/12 06:21:11;;;;;;;3.9;2.1;;;;;;;6.11;83.89;;;;;
2023/12/12 06:32:11;;;;;;;3.9;2.1;;;;;;;6.02;84.43;;;;;
2023/12/12 06:42:11;;;;;;;5.3;2.7;;;;;;;6.07;84.2;;;;;
2023/12/12 06:53:11;;;;;;;5.3;2.7;;;;;;;6.1;83.94;;;;;
2023/12/12 07:04:11;;;;;;;5.3;2.7;;;;;;;6.08;83.75;;;;;
2023/12/12 07:14:11;;;;;;;7;2.9;;;;;;;6.12;83.39;;;;;
2023/12/12 07:25:11;;;;;;;7;2.9;;;;;;;6.16;82.99;;;;;
2023/12/12 07:36:11;;;;;;;6.1;3.1;;;;;;;6.22;82.5;;;;;
2023/12/12 07:46:11;;;;;;;6.1;3.1;;;;;;;6.19;82.83;;;;;
2023/12/12 07:56:11;;;;;;;6.1;3.1;;;;;;;6.22;82.46;;;;;
2023/12/12 08:07:11;;;;;;;5.7;2.8;;;;;;;6.3;81.94;;;;;
2023/12/12 08:18:11;;;;;;;5.7;2.8;;;;;;;6.22;81.54;;;;;
2023/12/12 08:28:11;;;;;;;5.7;2.8;;;;;;;6.2;81.47;;;;;
2023/12/12 08:38:11;;;;;;;8.3;3.3;;;;;;;6.13;81.89;;;;;
2023/12/12 08:49:12;;;;;;;8.3;3.3;;;;;;;6.33;81.53;;;;;
2023/12/12 09:00:12;;;;;;;8.3;3.3;;;;;;;6.52;80.92;;;;;
2023/12/12 09:10:11;;;;;;;7.5;4;;;;;;;6.77;79.85;;;;;
2023/12/12 09:21:11;;;;;;;7.5;4;;;;;;;7.4;78.19;;;;;
2023/12/12 09:32:11;;;;;;;7.5;4;;;;;;;7.28;76.96;;;;;
2023/12/12 09:42:11;;;;;;;5.8;3.5;;;;;;;7.29;77.41;;;;;
2023/12/12 09:52:13;;;;;;;5.8;3.5;;;;;;;7.22;77.55;;;;;
2023/12/12 10:03:11;;;;;;;5.8;3.5;;;;;;;7.16;77.6;;;;;
2023/12/12 10:14:11;;;;;;;5.6;3;;;;;;;7.01;78.39;;;;;
2023/12/12 10:24:11;;;;;;;5.6;3;;;;;;;7.14;78.22;;;;;
2023/12/12 10:35:11;;;;;;;5.6;3;;;;;;;7.43;77.04;;;;;
2023/12/12 10:46:11;;;;;;;7.1;2.8;;;;;;;7.62;75.63;;;;;
2023/12/12 10:56:11;;;;;;;7.1;2.8;;;;;;;7.56;74.59;;;;;
2023/12/12 11:06:11;;;;;;;7.6;3.1;;;;;;;7.69;73.76;;;;;
2023/12/12 11:17:11;;;;;;;7.6;3.1;;;;;;;7.77;73.71;;;;;
2023/12/12 11:28:11;;;;;;;7.6;3.1;;;;;;;7.66;73.84;;;;;
2023/12/12 11:38:11;;;;;;;9.9;3.4;;;;;;;7.59;74.48;;;;;
2023/12/12 11:49:11;;;;;;;9.9;3.4;;;;;;;7.82;74.14;;;;;
2023/12/12 11:59:11;;;;;;;9.9;3.4;;;;;;;7.84;73.68;;;;;
2023/12/12 12:09:11;;;;;;;6.3;3.2;;;;;;;8.1;73.75;;;;;
2023/12/12 12:20:11;;;;;;;6.3;3.2;;;;;;;8.22;72.98;;;;;
2023/12/12 12:30:11;;;;;;;6.3;3.2;;;;;;;8.32;73.38;;;;;
2023/12/12 12:40:11;;;;;;;9.6;4.1;;;;;;;8.47;72.78;;;;;
2023/12/12 12:50:12;;;;;;;9.6;4.1;;;;;;;8.4;73.69;;;;;
2023/12/12 13:01:11;;;;;;;9.6;4.1;;;;;;;8.26;73.83;;;;;
2023/12/12 13:11:11;;;;;;;8;4.9;;;;;;;8.27;73.99;;;;;
2023/12/12 13:22:11;;;;;;;8;4.9;;;;;;;8.11;73.99;;;;;
2023/12/12 13:33:11;;;;;;;8;4.9;;;;;;;7.81;74.17;;;;;
2023/12/12 13:44:11;;;;;;;8;4.6;;;;;;;7.66;74.56;;;;;
2023/12/12 13:54:11;;;;;;;8;4.6;;;;;;;7.49;74.85;;;;;
2023/12/12 14:04:11;;;;;;;8;4.6;;;;;;;7.39;74.71;;;;;
2023/12/12 14:15:11;;;;;;;8.2;4.5;;;;;;;7.24;75.46;;;;;
2023/12/12 14:25:11;;;;;;;8.2;4.5;;;;;;;6.68;77.48;;;;;
2023/12/12 14:35:11;;;;;;;10.2;5.1;;;;;;;6.43;77.65;;;;;
2023/12/12 14:46:11;;;;;;;10.2;5.1;;;;;;;6.16;78.02;;;;;
2023/12/12 14:57:11;;;;;;;10.2;5.1;;;;;;;5.81;79.28;;;;;
2023/12/12 15:08:11;;;;;;;10.1;5.1;;;;;;;5.63;80.35;;;;;
2023/12/12 15:18:11;;;;;;;10.1;5.1;;;;;;;5.67;80.33;;;;;
2023/12/12 15:28:11;;;;;;;10.1;5.1;;;;;;;5.6;80.55;;;;;
2023/12/12 15:38:11;;;;;;;8.4;5.9;;;;;;;5.69;79.95;;;;;
2023/12/12 15:48:11;;;;;;;8.4;5.9;;;;;;;5.66;79.88;;;;;
2023/12/12 15:58:11;;;;;;;8.4;5.9;;;;;;;5.61;80.19;;;;;
2023/12/12 16:09:13;;;;;;;11.9;5.7;;;;;;;5.55;80.25;;;;;
2023/12/12 16:19:11;;;;;;;11.9;5.7;;;;;;;5.58;80.35;;;;;
2023/12/12 16:29:11;;;;;;;11.9;5.7;;;;;;;5.57;80.24;;;;;
2023/12/12 16:39:11;;;;;;;9.7;5.7;;;;;;;5.59;80.16;;;;;
2023/12/12 16:49:11;;;;;;;9.7;5.7;;;;;;;5.65;79.94;;;;;
2023/12/12 16:59:11;;;;;;;9.7;5.7;;;;;;;5.62;80.05;;;;;
2023/12/12 17:10:11;;;;;;;11.3;6;;;;;;;5.56;80.26;;;;;
2023/12/12 17:20:11;;;;;;;11.3;6;;;;;;;5.64;80.04;;;;;
2023/12/12 17:30:12;;;;;;;11.3;6;;;;;;;5.64;79.83;;;;;
2023/12/12 17:41:11;;;;;;;10.3;5.6;;;;;;;5.54;79.61;;;;;
2023/12/12 17:52:14;;;;;;;10.3;5.6;;;;;;;5.42;79.97;;;;;
2023/12/12 18:03:11;;;;;;;10.3;5.6;;;;;;;5.47;79.64;;;;;
2023/12/12 18:14:11;;;;;;;8.8;4.3;;;;;;;5.4;79.97;;;;;
2023/12/12 18:25:11;;;;;;;8.8;4.3;;;;;;;5.48;79.91;;;;;
2023/12/12 18:36:11;;;;;;;13.4;5.7;;;;;;;5.57;79.35;;;;;
2023/12/12 18:46:12;;;;;;;13.4;5.7;;;;;;;5.52;79.81;;;;;
2023/12/12 18:56:14;;;;;;;13.4;5.7;;;;;;;5.37;80.08;;;;;
2023/12/12 19:07:11;;;;;;;12.8;6.8;;;;;;;5.3;80.57;;;;;
2023/12/12 19:18:11;;;;;;;12.8;6.8;;;;;;;5.23;80.72;;;;;
2023/12/12 19:28:11;;;;;;;12.8;6.8;;;;;;;5.15;80.78;;;;;
2023/12/12 19:38:12;;;;;;;13.1;6.3;;;;;;;5.18;80.39;;;;;
2023/12/12 19:48:11;;;;;;;13.1;6.3;;;;;;;5.22;79.93;;;;;
2023/12/12 19:59:11;;;;;;;13.1;6.3;;;;;;;5.08;80.31;;;;;
2023/12/12 20:10:13;;;;;;;11.1;6.3;;;;;;;4.86;79.93;;;;;
2023/12/12 20:20:12;;;;;;;11.1;6.3;;;;;;;4.6;79.22;;;;;
2023/12/12 20:30:11;;;;;;;11.1;6.3;;;;;;;4.26;79.96;;;;;
2023/12/12 20:41:11;;;;;;;10.9;6.4;;;;;;;4.08;80.84;;;;;
2023/12/12 20:51:14;;;;;;;10.9;6.4;;;;;;;4.22;81.54;;;;;
2023/12/12 21:01:11;;;;;;;10.9;6.4;;;;;;;4.42;81.41;;;;;
2023/12/12 21:12:11;;;;;;;19.4;9.9;;;;;;;4.47;81.24;;;;;
2023/12/12 21:22:11;;;;;;;19.4;9.9;;;;;;;4.36;81.48;;;;;
2023/12/12 21:33:11;;;;;;;19.4;9.9;;;;;;;4.25;81.42;;;;;
2023/12/12 21:44:12;;;;;;;21.1;13;;;;;;;4;80.8;;;;;
2023/12/12 21:54:11;;;;;;;21.1;13;;;;;;;3.64;80.89;;;;;
2023/12/12 22:05:11;;;;;;;20.4;10.4;;;;;;;3.23;82.48;;;;;
2023/12/12 22:15:11;;;;;;;20.4;10.4;;;;;;;2.9;84.19;;;;;
2023/12/12 22:25:12;;;;;;;20.4;10.4;;;;;;;2.83;84.31;;;;;
2023/12/12 22:36:11;;;;;;;20.2;11.8;;;;;;;2.71;85.36;;;;;
2023/12/12 22:47:12;;;;;;;20.2;11.8;;;;;;;2.58;86.04;;;;;
2023/12/12 22:57:12;;;;;;;20.2;11.8;;;;;;;2.75;86.65;;;;;
2023/12/12 23:08:11;;;;;;;23.1;13.3;;;;;;;2.85;86.57;;;;;
2023/12/12 23:19:12;;;;;;;23.1;13.3;;;;;;;2.92;85.99;;;;;
2023/12/12 23:30:11;;;;;;;23.1;13.3;;;;;;;3.01;85.88;;;;;
2023/12/12 23:41:11;;;;;;;19.6;9.7;;;;;;;3.2;85.62;;;;;
2023/12/12 23:51:11;;;;;;;19.6;9.7;;;;;;;3.33;85.36;;;;;
